createdAt,value
2023-05-25T00:01:21.567Z,19.85
2023-05-25T00:03:28.103Z,16.33
2023-05-25T00:05:36.170Z,16.15
2023-05-25T00:07:41.839Z,13.50
2023-05-25T00:09:47.198Z,13.30
2023-05-25T00:11:52.989Z,18.45
2023-05-25T00:13:58.142Z,15.88
2023-05-25T00:16:03.537Z,14.45
2023-05-25T00:18:08.905Z,14.02
2023-05-25T00:20:15.320Z,15.18
2023-05-25T00:22:23.427Z,18.58
2023-05-25T00:24:28.564Z,15.32
2023-05-25T00:26:33.795Z,15.00
2023-05-25T00:28:39.240Z,19.27
2023-05-25T00:30:44.457Z,14.93
2023-05-25T00:32:49.668Z,16.83
2023-05-25T00:34:54.916Z,16.17
2023-05-25T00:37:00.123Z,21.42
2023-05-25T00:39:08.300Z,20.02
2023-05-25T00:41:13.493Z,13.63
2023-05-25T00:43:18.694Z,14.75
2023-05-25T00:45:23.976Z,13.77
2023-05-25T00:47:30.392Z,10.63
2023-05-25T00:49:39.166Z,13.80
2023-05-25T00:51:46.741Z,10.80
2023-05-25T00:53:52.300Z,13.68
2023-05-25T00:56:08.592Z,19.58
2023-05-25T00:58:16.195Z,14.07
2023-05-25T01:00:22.157Z,15.10
2023-05-25T01:02:29.355Z,14.82
2023-05-25T01:04:37.469Z,16.08
2023-05-25T01:06:50.127Z,17.65
2023-05-25T01:09:01.509Z,14.40
2023-05-25T01:11:12.741Z,18.33
2023-05-25T01:13:20.615Z,14.43
2023-05-25T01:15:26.601Z,16.38
2023-05-25T01:17:32.528Z,24.70
2023-05-25T01:19:41.423Z,17.98
2023-05-25T01:21:54.560Z,15.40
2023-05-25T01:24:12.548Z,19.00
2023-05-25T01:26:22.208Z,13.30
2023-05-25T01:28:33.776Z,13.52
2023-05-25T01:30:42.860Z,12.82
2023-05-25T01:32:49.481Z,18.80
2023-05-25T01:34:58.658Z,13.60
2023-05-25T01:37:07.009Z,16.15
2023-05-25T01:39:15.862Z,15.50
2023-05-25T01:41:21.089Z,11.55
2023-05-25T01:43:28.282Z,15.23
2023-05-25T01:45:35.363Z,15.00
2023-05-25T01:47:49.593Z,16.58
2023-05-25T01:50:04.774Z,14.45
2023-05-25T01:52:22.267Z,13.95
2023-05-25T01:54:38.703Z,13.48
2023-05-25T01:56:48.731Z,15.00
2023-05-25T01:58:54.557Z,15.00
2023-05-25T02:01:01.200Z,12.10
2023-05-25T02:03:07.433Z,11.82
2023-05-25T02:05:14.721Z,14.93
2023-05-25T02:07:22.657Z,10.70
2023-05-25T02:09:28.153Z,17.27
2023-05-25T02:11:33.237Z,14.60
2023-05-25T02:13:38.305Z,14.23
2023-05-25T02:15:43.581Z,17.65
2023-05-25T02:17:48.947Z,17.33
2023-05-25T02:19:54.759Z,15.50
2023-05-25T02:22:00.050Z,16.67
2023-05-25T02:24:09.642Z,12.68
2023-05-25T02:26:14.739Z,11.25
2023-05-25T02:28:21.610Z,17.38
2023-05-25T02:30:27.812Z,22.20
2023-05-25T02:32:36.093Z,12.15
2023-05-25T02:34:41.315Z,13.05
2023-05-25T02:36:47.254Z,14.05
2023-05-25T02:38:52.651Z,15.40
2023-05-25T02:41:01.021Z,13.15
2023-05-25T02:43:06.197Z,16.60
2023-05-25T02:45:14.043Z,16.40
2023-05-25T02:47:20.992Z,13.77
2023-05-25T02:49:26.409Z,18.05
2023-05-25T02:51:32.555Z,13.63
2023-05-25T02:53:38.485Z,15.27
2023-05-25T02:55:44.362Z,13.77
2023-05-25T02:57:58.397Z,11.65
2023-05-25T03:00:20.958Z,13.85
2023-05-25T03:02:26.403Z,16.23
2023-05-25T03:04:34.487Z,18.45
2023-05-25T03:06:40.155Z,10.07
2023-05-25T03:08:53.382Z,13.90
2023-05-25T03:10:58.736Z,18.23
2023-05-25T03:13:07.085Z,11.48
2023-05-25T03:15:14.222Z,15.80
2023-05-25T03:17:19.578Z,18.90
2023-05-25T03:19:24.869Z,12.82
2023-05-25T03:21:30.302Z,16.80
2023-05-25T03:23:35.414Z,13.00
2023-05-25T03:25:44.768Z,14.00
2023-05-25T03:27:50.094Z,15.00
2023-05-25T03:29:58.495Z,12.60
2023-05-25T03:32:03.612Z,17.42
2023-05-25T03:34:12.005Z,13.48
2023-05-25T03:36:17.979Z,13.60
2023-05-25T03:38:23.392Z,17.80
2023-05-25T03:40:28.816Z,16.98
2023-05-25T03:42:34.183Z,14.45
2023-05-25T03:44:41.230Z,14.70
2023-05-25T03:46:49.697Z,14.05
2023-05-25T03:48:54.749Z,13.77
2023-05-25T03:51:00.047Z,16.65
2023-05-25T03:53:05.593Z,11.93
2023-05-25T03:55:11.618Z,16.15
2023-05-25T03:57:16.836Z,12.18
2023-05-25T03:59:22.686Z,16.25
2023-05-25T04:01:30.275Z,13.02
2023-05-25T04:03:38.202Z,14.93
2023-05-25T04:05:43.729Z,15.48
2023-05-25T04:07:49.075Z,14.40
2023-05-25T04:09:54.115Z,16.77
2023-05-25T04:11:59.396Z,14.85
2023-05-25T04:14:04.484Z,15.25
2023-05-25T04:16:13.799Z,16.58
2023-05-25T04:18:20.707Z,16.15
2023-05-25T04:20:29.362Z,14.73
2023-05-25T04:22:35.199Z,15.65
2023-05-25T04:24:41.075Z,15.38
2023-05-25T04:26:47.334Z,14.40
2023-05-25T04:28:54.745Z,17.23
2023-05-25T04:31:19.282Z,16.20
2023-05-25T04:33:29.967Z,16.70
2023-05-25T04:35:41.835Z,14.82
2023-05-25T04:37:47.320Z,18.10
2023-05-25T04:39:53.907Z,14.48
2023-05-25T04:41:59.925Z,17.70
2023-05-25T04:44:09.676Z,17.35
2023-05-25T04:46:24.429Z,19.20
2023-05-25T04:48:32.692Z,15.80
2023-05-25T04:50:40.324Z,13.02
2023-05-25T04:52:49.160Z,14.30
2023-05-25T04:54:54.395Z,15.65
2023-05-25T04:57:00.045Z,16.63
2023-05-25T04:59:07.275Z,16.20
2023-05-25T05:01:13.036Z,15.77
2023-05-25T05:03:18.407Z,14.73
2023-05-25T05:05:23.546Z,25.67
2023-05-25T05:07:32.187Z,16.73
2023-05-25T05:09:40.165Z,18.67
2023-05-25T05:11:46.547Z,15.98
2023-05-25T05:13:52.263Z,21.17
2023-05-25T05:15:57.574Z,19.52
2023-05-25T05:18:04.193Z,23.65
2023-05-25T05:20:11.899Z,18.90
2023-05-25T05:22:17.606Z,20.35
2023-05-25T05:24:24.752Z,23.60
2023-05-25T05:26:48.171Z,20.63
2023-05-25T05:28:59.890Z,25.67
2023-05-25T05:31:06.956Z,19.42
2023-05-25T05:33:13.437Z,19.02
2023-05-25T05:35:25.077Z,20.80
2023-05-25T05:37:39.689Z,19.88
2023-05-25T05:39:44.880Z,25.58
2023-05-25T05:41:53.315Z,19.90
2023-05-25T05:43:59.460Z,37.53
2023-05-25T05:46:04.535Z,24.42
2023-05-25T05:48:11.391Z,21.70
2023-05-25T05:50:17.092Z,19.35
2023-05-25T05:52:22.243Z,19.42
2023-05-25T05:54:28.138Z,21.00
2023-05-25T05:56:34.427Z,21.35
2023-05-25T05:58:42.252Z,24.77
2023-05-25T06:00:47.421Z,25.38
2023-05-25T06:02:52.575Z,25.48
2023-05-25T06:05:01.774Z,24.08
2023-05-25T06:07:08.351Z,26.52
2023-05-25T06:09:14.630Z,25.45
2023-05-25T06:11:19.677Z,22.52
2023-05-25T06:13:24.784Z,24.52
2023-05-25T06:15:32.847Z,22.58
2023-05-25T06:17:39.385Z,20.02
2023-05-25T06:19:48.171Z,22.10
2023-05-25T06:21:53.901Z,17.52
2023-05-25T06:24:00.761Z,21.77
2023-05-25T06:26:10.450Z,19.30
2023-05-25T06:28:15.734Z,17.27
2023-05-25T06:30:21.411Z,18.75
2023-05-25T06:32:29.191Z,14.40
2023-05-25T06:34:37.324Z,21.08
2023-05-25T06:36:44.003Z,20.05
2023-05-25T06:38:49.736Z,18.80
2023-05-25T06:40:55.941Z,19.90
2023-05-25T06:43:01.133Z,20.95
2023-05-25T06:45:22.220Z,14.32
2023-05-25T06:47:31.235Z,17.58
2023-05-25T06:49:36.516Z,19.33
2023-05-25T06:51:42.258Z,18.50
2023-05-25T06:53:47.520Z,14.48
2023-05-25T06:55:56.884Z,18.77
2023-05-25T06:58:02.096Z,19.48
2023-05-25T07:00:10.101Z,16.90
2023-05-25T07:02:15.215Z,20.90
2023-05-25T07:04:23.445Z,14.98
2023-05-25T07:06:31.247Z,18.35
2023-05-25T07:08:38.826Z,18.25
2023-05-25T07:10:45.032Z,18.00
2023-05-25T07:12:50.134Z,16.17
2023-05-25T07:14:55.864Z,17.50
2023-05-25T07:17:00.960Z,21.23
2023-05-25T07:19:06.153Z,17.65
2023-05-25T07:21:15.682Z,16.40
2023-05-25T07:23:20.937Z,16.25
2023-05-25T07:25:26.182Z,18.40
2023-05-25T07:27:33.924Z,15.20
2023-05-25T07:29:39.071Z,20.17
2023-05-25T07:31:44.925Z,20.10
2023-05-25T07:33:50.085Z,14.60
2023-05-25T07:35:55.228Z,14.48
2023-05-25T07:38:05.786Z,15.93
2023-05-25T07:40:12.814Z,16.13
2023-05-25T07:42:21.098Z,15.88
2023-05-25T07:44:26.486Z,16.50
2023-05-25T07:46:31.625Z,22.63
2023-05-25T07:48:37.530Z,15.20
2023-05-25T07:50:42.755Z,18.05
2023-05-25T07:52:48.306Z,14.70
2023-05-25T07:54:56.904Z,14.80
2023-05-25T07:57:02.050Z,17.67
2023-05-25T07:59:07.257Z,12.90
2023-05-25T08:01:12.360Z,11.57
2023-05-25T08:03:18.037Z,10.80
2023-05-25T08:05:23.243Z,14.70
2023-05-25T08:07:28.346Z,11.93
2023-05-25T08:09:33.456Z,15.35
2023-05-25T08:11:41.136Z,11.63
2023-05-25T08:13:46.392Z,13.98
2023-05-25T08:15:52.474Z,15.88
2023-05-25T08:17:57.752Z,11.38
2023-05-25T08:20:04.477Z,14.63
2023-05-25T08:22:11.887Z,13.57
2023-05-25T08:24:20.257Z,11.63
2023-05-25T08:26:41.321Z,11.88
2023-05-25T08:28:53.913Z,12.75
2023-05-25T08:30:59.053Z,11.65
2023-05-25T08:33:05.584Z,14.35
2023-05-25T08:35:14.879Z,10.27
2023-05-25T08:37:20.223Z,12.48
2023-05-25T08:39:25.503Z,16.70
2023-05-25T08:41:32.448Z,11.35
2023-05-25T08:43:42.197Z,9.13
2023-05-25T08:45:50.834Z,12.13
2023-05-25T08:48:02.580Z,17.92
2023-05-25T08:50:11.056Z,11.85
2023-05-25T08:52:17.933Z,13.25
2023-05-25T08:54:31.971Z,12.63
2023-05-25T08:56:52.181Z,15.82
2023-05-25T08:59:06.963Z,11.65
2023-05-25T09:01:21.283Z,14.32
2023-05-25T09:03:27.509Z,10.75
2023-05-25T09:07:38.796Z,15.00
2023-05-25T09:09:44.580Z,11.68
2023-05-25T09:11:50.892Z,10.18
2023-05-25T09:13:56.605Z,13.82
2023-05-25T09:16:03.246Z,15.15
2023-05-25T09:18:13.018Z,14.85
2023-05-25T09:20:19.674Z,12.75
2023-05-25T09:22:25.257Z,10.43
2023-05-25T09:24:30.950Z,12.68
2023-05-25T09:26:38.487Z,10.60
2023-05-25T09:28:49.542Z,11.90
2023-05-25T09:30:54.742Z,9.05
2023-05-25T09:33:11.588Z,10.23
2023-05-25T09:35:19.402Z,18.27
2023-05-25T09:37:25.784Z,11.20
2023-05-25T09:39:31.880Z,12.02
2023-05-25T09:41:37.695Z,10.43
2023-05-25T09:43:48.986Z,10.52
2023-05-25T09:46:03.508Z,10.07
2023-05-25T09:48:10.294Z,11.13
2023-05-25T09:50:18.797Z,14.35
2023-05-25T09:52:24.743Z,9.32
2023-05-25T09:54:30.047Z,11.48
2023-05-25T09:56:36.535Z,9.65
2023-05-25T09:58:42.139Z,10.27
2023-05-25T10:00:48.249Z,13.32
2023-05-25T10:02:53.752Z,10.55
2023-05-25T10:04:59.371Z,8.45
2023-05-25T10:07:08.246Z,9.38
2023-05-25T10:09:16.794Z,12.45
2023-05-25T10:11:24.352Z,10.43
2023-05-25T10:13:33.002Z,10.18
2023-05-25T10:15:40.482Z,9.30
2023-05-25T10:17:52.680Z,10.65
2023-05-25T10:20:00.911Z,15.60
2023-05-25T10:22:17.170Z,14.38
2023-05-25T10:24:34.611Z,9.35
2023-05-25T10:26:45.058Z,10.75
2023-05-25T10:28:53.929Z,8.88
2023-05-25T10:31:01.022Z,11.75
2023-05-25T10:33:07.945Z,9.85
2023-05-25T10:35:14.322Z,10.10
2023-05-25T10:37:22.218Z,11.93
2023-05-25T10:39:28.357Z,9.07
2023-05-25T10:41:33.599Z,10.38
2023-05-25T10:43:39.057Z,11.10
2023-05-25T10:45:45.279Z,12.32
2023-05-25T10:47:51.280Z,13.57
2023-05-25T10:49:58.659Z,12.98
2023-05-25T10:52:05.289Z,12.88
2023-05-25T10:54:19.063Z,11.90
2023-05-25T10:56:24.289Z,14.32
2023-05-25T10:58:31.580Z,11.80
2023-05-25T11:00:36.783Z,9.88
2023-05-25T11:02:54.054Z,9.18
2023-05-25T11:05:35.377Z,11.13
2023-05-25T11:07:56.602Z,12.90
2023-05-25T11:10:08.812Z,13.35
2023-05-25T11:12:25.013Z,10.52
2023-05-25T11:14:32.695Z,10.35
2023-05-25T11:16:40.289Z,9.35
2023-05-25T11:18:46.740Z,9.88
2023-05-25T11:20:51.936Z,11.00
2023-05-25T11:22:57.530Z,10.98
2023-05-25T11:25:27.070Z,11.93
2023-05-25T11:27:36.087Z,11.65
2023-05-25T11:29:42.306Z,11.70
2023-05-25T11:31:47.451Z,8.18
2023-05-25T11:33:57.637Z,9.52
2023-05-25T11:36:04.132Z,9.25
2023-05-25T11:38:11.278Z,11.18
2023-05-25T11:40:16.711Z,13.07
2023-05-25T11:42:24.819Z,11.02
2023-05-25T11:44:35.409Z,11.55
2023-05-25T11:46:40.540Z,9.93
2023-05-25T11:48:47.660Z,12.27
2023-05-25T11:51:07.919Z,12.02
2023-05-25T11:53:13.869Z,10.68
2023-05-25T11:55:18.960Z,13.73
2023-05-25T11:57:27.390Z,11.23
2023-05-25T11:59:35.665Z,14.23
2023-05-25T12:01:41.680Z,12.02
2023-05-25T12:03:47.172Z,11.88
2023-05-25T12:05:52.332Z,10.13
2023-05-25T12:07:57.827Z,13.55
2023-05-25T12:10:10.876Z,13.45
2023-05-25T12:14:21.251Z,12.80
2023-05-25T12:16:29.763Z,12.77
2023-05-25T12:18:35.520Z,13.00
2023-05-25T12:20:41.582Z,10.15
2023-05-25T12:22:48.393Z,13.18
2023-05-25T12:24:53.572Z,10.20
2023-05-25T12:26:59.323Z,12.32
2023-05-25T12:29:06.577Z,9.63
2023-05-25T12:31:25.119Z,9.95
2023-05-25T12:33:32.823Z,10.55
2023-05-25T12:35:48.644Z,9.15
2023-05-25T12:37:53.746Z,16.10
2023-05-25T12:40:00.220Z,10.93
2023-05-25T12:42:06.873Z,9.68
2023-05-25T12:44:26.934Z,9.90
2023-05-25T12:46:32.075Z,12.60
2023-05-25T12:48:40.006Z,10.30
2023-05-25T12:51:00.978Z,7.57
2023-05-25T12:53:06.854Z,11.40
2023-05-25T12:55:29.787Z,8.50
2023-05-25T12:57:38.079Z,10.18
2023-05-25T12:59:45.299Z,10.15
2023-05-25T13:01:50.404Z,13.02
2023-05-25T13:03:58.637Z,10.13
2023-05-25T13:06:04.983Z,10.95
2023-05-25T13:08:10.154Z,13.05
2023-05-25T13:10:16.493Z,11.05
2023-05-25T13:12:21.585Z,9.20
2023-05-25T13:14:27.491Z,12.60
2023-05-25T13:16:36.457Z,10.68
2023-05-25T13:18:41.539Z,8.80
2023-05-25T13:20:51.801Z,8.52
2023-05-25T13:22:58.627Z,8.07
2023-05-25T13:25:04.277Z,10.10
2023-05-25T13:27:09.581Z,9.57
2023-05-25T13:29:15.166Z,10.25
2023-05-25T13:31:20.696Z,9.77
2023-05-25T13:33:25.779Z,10.73
2023-05-25T13:35:46.173Z,12.15
2023-05-25T13:37:53.907Z,8.65
2023-05-25T13:39:59.421Z,13.05
2023-05-25T13:42:05.009Z,10.27
2023-05-25T13:44:11.287Z,9.35
2023-05-25T13:46:32.853Z,10.40
2023-05-25T13:50:45.291Z,10.52
2023-05-25T13:52:53.112Z,9.35
2023-05-25T13:54:58.132Z,9.05
2023-05-25T13:57:03.815Z,10.75
2023-05-25T13:59:08.829Z,9.57
2023-05-25T14:01:14.221Z,9.88
2023-05-25T14:03:19.710Z,10.32
2023-05-25T14:05:24.892Z,13.57
2023-05-25T14:07:29.940Z,7.63
2023-05-25T14:09:37.803Z,12.00
2023-05-25T14:11:44.096Z,8.23
2023-05-25T14:13:49.122Z,10.68
2023-05-25T14:15:54.741Z,11.57
2023-05-25T14:17:59.835Z,8.18
2023-05-25T14:20:05.692Z,11.18
2023-05-25T14:22:13.350Z,8.40
2023-05-25T14:24:19.662Z,11.73
2023-05-25T14:26:28.180Z,10.52
2023-05-25T14:28:33.315Z,10.48
2023-05-25T14:30:38.361Z,8.10
2023-05-25T14:32:43.732Z,9.70
2023-05-25T14:34:49.057Z,10.43
2023-05-25T14:36:54.102Z,10.32
2023-05-25T14:38:59.254Z,10.70
2023-05-25T14:41:04.387Z,11.73
2023-05-25T14:43:12.172Z,11.60
2023-05-25T14:45:18.473Z,11.05
2023-05-25T14:47:24.093Z,9.88
2023-05-25T14:49:29.154Z,10.98
2023-05-25T14:51:34.432Z,12.30
2023-05-25T14:53:39.836Z,9.73
2023-05-25T14:55:45.051Z,10.27
2023-05-25T14:57:51.028Z,10.80
2023-05-25T14:59:59.372Z,12.30
2023-05-25T15:02:04.697Z,9.18
2023-05-25T15:04:10.190Z,9.95
2023-05-25T15:06:15.328Z,8.68
2023-05-25T15:08:21.034Z,8.77
2023-05-25T15:10:26.238Z,11.05
2023-05-25T15:12:31.508Z,13.45
2023-05-25T15:14:40.166Z,8.93
2023-05-25T15:16:47.926Z,11.05
2023-05-25T15:18:53.998Z,10.85
2023-05-25T15:21:00.146Z,11.95
2023-05-25T15:23:05.447Z,10.00
2023-05-25T15:25:12.587Z,11.50
2023-05-25T15:27:20.062Z,10.20
2023-05-25T15:29:25.405Z,10.13
2023-05-25T15:31:30.697Z,10.23
2023-05-25T15:33:51.979Z,8.32
2023-05-25T15:36:01.971Z,11.45
2023-05-25T15:38:07.433Z,10.10
2023-05-25T15:40:14.835Z,8.27
2023-05-25T15:42:21.138Z,13.15
2023-05-25T15:44:30.606Z,8.48
2023-05-25T15:46:35.673Z,9.95
2023-05-25T15:48:43.375Z,10.77
2023-05-25T15:50:48.432Z,12.00
2023-05-25T15:52:53.551Z,11.88
2023-05-25T15:54:58.942Z,10.48
2023-05-25T15:57:04.154Z,9.90
2023-05-25T15:59:10.037Z,9.90
2023-05-25T16:01:15.089Z,8.27
2023-05-25T16:03:20.154Z,11.20
2023-05-25T16:05:30.169Z,8.98
2023-05-25T16:07:35.361Z,12.52
2023-05-25T16:09:40.528Z,8.70
2023-05-25T16:11:45.580Z,9.85
2023-05-25T16:13:50.954Z,8.02
2023-05-25T16:15:56.338Z,9.00
2023-05-25T16:18:01.444Z,11.18
2023-05-25T16:20:09.148Z,10.13
2023-05-25T16:22:17.080Z,7.90
2023-05-25T16:24:22.105Z,7.65
2023-05-25T16:26:27.326Z,9.68
2023-05-25T16:28:32.620Z,10.68
2023-05-25T16:30:37.632Z,10.32
2023-05-25T16:32:42.763Z,8.07
2023-05-25T16:34:47.827Z,10.80
2023-05-25T16:36:52.893Z,9.88
2023-05-25T16:39:00.502Z,9.88
2023-05-25T16:41:05.556Z,13.10
2023-05-25T16:43:11.216Z,13.27
2023-05-25T16:45:16.419Z,10.77
2023-05-25T16:47:21.821Z,8.25
2023-05-25T16:49:27.332Z,8.80
2023-05-25T16:51:32.683Z,14.38
2023-05-25T16:53:37.767Z,9.00
2023-05-25T16:55:46.061Z,14.73
2023-05-25T16:57:51.683Z,9.60
2023-05-25T16:59:56.734Z,7.72
2023-05-25T17:02:02.408Z,8.20
2023-05-25T17:04:07.908Z,8.65
2023-05-25T17:06:13.805Z,8.93
2023-05-25T17:08:19.085Z,10.27
2023-05-25T17:10:24.140Z,7.65
2023-05-25T17:12:31.992Z,9.18
2023-05-25T17:14:37.315Z,9.32
2023-05-25T17:16:42.555Z,9.35
2023-05-25T17:18:47.918Z,8.70
2023-05-25T17:20:53.046Z,13.50
2023-05-25T17:22:58.109Z,12.68
2023-05-25T17:25:03.621Z,7.80
2023-05-25T17:27:09.281Z,12.90
2023-05-25T17:29:17.159Z,11.55
2023-05-25T17:31:22.475Z,12.18
2023-05-25T17:33:27.842Z,10.07
2023-05-25T17:35:33.417Z,10.07
2023-05-25T17:37:38.556Z,10.30
2023-05-25T17:39:45.150Z,9.20
2023-05-25T17:41:50.477Z,11.35
2023-05-25T17:43:55.532Z,10.15
2023-05-25T17:46:03.175Z,7.82
2023-05-25T17:48:08.414Z,10.27
2023-05-25T17:50:14.179Z,8.13
2023-05-25T17:52:19.608Z,12.82
2023-05-25T17:54:25.984Z,9.80
2023-05-25T17:56:31.582Z,9.60
2023-05-25T17:58:37.339Z,11.63
2023-05-25T18:00:45.601Z,10.43
2023-05-25T18:02:53.378Z,12.77
2023-05-25T18:04:59.555Z,9.45
2023-05-25T18:07:04.635Z,10.48
2023-05-25T18:09:09.749Z,8.70
2023-05-25T18:11:14.821Z,12.02
2023-05-25T18:13:20.262Z,14.73
2023-05-25T18:15:25.531Z,11.23
2023-05-25T18:17:31.198Z,8.50
2023-05-25T18:19:38.877Z,9.30
2023-05-25T18:21:43.940Z,9.88
2023-05-25T18:23:49.259Z,11.13
2023-05-25T18:25:54.313Z,15.18
2023-05-25T18:27:59.367Z,10.93
2023-05-25T18:30:04.949Z,13.48
2023-05-25T18:32:10.287Z,14.00
2023-05-25T18:34:16.190Z,10.10
2023-05-25T18:36:23.785Z,11.82
2023-05-25T18:38:28.805Z,16.23
2023-05-25T18:40:33.980Z,14.32
2023-05-25T18:42:43.105Z,13.77
2023-05-25T18:44:48.159Z,10.02
2023-05-25T18:46:55.452Z,13.10
2023-05-25T18:49:00.648Z,11.52
2023-05-25T18:51:05.757Z,9.38
2023-05-25T18:53:13.798Z,11.60
2023-05-25T18:55:18.942Z,11.63
2023-05-25T18:57:24.078Z,14.20
2023-05-25T18:59:29.124Z,13.13
2023-05-25T19:01:34.238Z,13.48
2023-05-25T19:03:39.617Z,16.73
2023-05-25T19:05:45.174Z,18.63
2023-05-25T19:07:59.077Z,13.30
2023-05-25T19:10:08.325Z,12.05
2023-05-25T19:12:14.614Z,13.25
2023-05-25T19:14:19.656Z,13.68
2023-05-25T19:16:24.798Z,13.07
2023-05-25T19:18:30.482Z,12.93
2023-05-25T19:20:36.149Z,15.52
2023-05-25T19:22:42.210Z,14.18
2023-05-25T19:26:56.151Z,15.55
2023-05-25T19:29:02.267Z,14.57
2023-05-25T19:31:07.614Z,13.77
2023-05-25T19:33:12.936Z,13.40
2023-05-25T19:35:18.056Z,12.32
2023-05-25T19:37:23.140Z,14.32
2023-05-25T19:39:30.702Z,12.40
2023-05-25T19:41:37.737Z,14.38
2023-05-25T19:43:45.363Z,16.63
2023-05-25T19:45:50.678Z,13.60
2023-05-25T19:47:55.824Z,12.13
2023-05-25T19:50:00.948Z,12.65
2023-05-25T19:52:06.148Z,14.30
2023-05-25T19:54:11.243Z,13.38
2023-05-25T19:56:16.284Z,14.13
2023-05-25T19:58:21.408Z,13.80
2023-05-25T20:00:29.027Z,15.60
2023-05-25T20:02:34.176Z,14.30
2023-05-25T20:04:41.023Z,15.23
2023-05-25T20:06:46.278Z,14.75
2023-05-25T20:08:51.393Z,13.80
2023-05-25T20:10:56.660Z,15.18
2023-05-25T20:13:01.691Z,16.40
2023-05-25T20:15:07.424Z,15.18
2023-05-25T20:17:15.050Z,15.27
2023-05-25T20:19:22.421Z,13.63
2023-05-25T20:21:28.166Z,17.92
2023-05-25T20:23:34.030Z,11.55
2023-05-25T20:25:39.218Z,13.02
2023-05-25T20:27:44.254Z,12.40
2023-05-25T20:29:49.911Z,17.08
2023-05-25T20:31:55.091Z,14.40
2023-05-25T20:34:02.716Z,14.43
2023-05-25T20:36:08.565Z,11.10
2023-05-25T20:38:13.671Z,15.00
2023-05-25T20:40:18.930Z,11.80
2023-05-25T20:42:24.023Z,13.10
2023-05-25T20:44:29.042Z,12.23
2023-05-25T20:46:34.317Z,13.73
2023-05-25T20:48:41.846Z,15.23
2023-05-25T20:50:50.030Z,16.67
2023-05-25T20:52:55.095Z,14.70
2023-05-25T20:55:00.166Z,11.77
2023-05-25T20:57:05.272Z,17.50
2023-05-25T20:59:10.325Z,18.52
2023-05-25T21:01:15.749Z,15.15
2023-05-25T21:03:21.350Z,12.73
2023-05-25T21:05:27.086Z,18.70
2023-05-25T21:07:34.676Z,13.82
2023-05-25T21:09:39.829Z,14.60
2023-05-25T21:11:44.879Z,15.00
2023-05-25T21:13:50.608Z,17.73
2023-05-25T21:15:56.014Z,15.77
2023-05-25T21:18:01.585Z,13.85
2023-05-25T21:20:07.776Z,15.65
2023-05-25T21:22:13.276Z,16.95
2023-05-25T21:24:20.890Z,14.20
2023-05-25T21:26:26.265Z,14.13
2023-05-25T21:28:31.627Z,19.10
2023-05-25T21:30:36.689Z,18.08
2023-05-25T21:32:42.642Z,20.17
2023-05-25T21:34:47.728Z,14.80
2023-05-25T21:36:52.899Z,16.52
2023-05-25T21:38:58.465Z,17.48
2023-05-25T21:41:06.075Z,16.52
2023-05-25T21:43:11.967Z,16.90
2023-05-25T21:45:16.996Z,17.77
2023-05-25T21:47:22.531Z,17.20
2023-05-25T21:49:27.910Z,18.60
2023-05-25T21:51:33.079Z,18.50
2023-05-25T21:53:38.649Z,16.70
2023-05-25T21:55:44.152Z,26.45
2023-05-25T21:57:51.881Z,16.58
2023-05-25T21:59:56.924Z,18.17
2023-05-25T22:02:02.659Z,19.90
2023-05-25T22:04:08.098Z,20.35
2023-05-25T22:06:13.380Z,18.85
2023-05-25T22:08:18.528Z,19.60
2023-05-25T22:10:23.640Z,18.70
2023-05-25T22:12:28.749Z,17.98
2023-05-25T22:14:36.758Z,20.52
2023-05-25T22:16:41.875Z,20.83
2023-05-25T22:18:47.196Z,15.82
2023-05-25T22:20:52.343Z,17.65
2023-05-25T22:22:57.752Z,16.85
2023-05-25T22:25:03.094Z,16.50
2023-05-25T22:27:08.815Z,18.42
2023-05-25T22:29:14.192Z,15.23
2023-05-25T22:31:24.186Z,20.85
2023-05-25T22:33:29.250Z,17.30
2023-05-25T22:35:34.289Z,21.83
2023-05-25T22:37:39.735Z,22.25
2023-05-25T22:39:44.752Z,25.05
2023-05-25T22:41:49.768Z,19.83
2023-05-25T22:43:54.814Z,22.70
2023-05-25T22:46:00.174Z,21.77
2023-05-25T22:48:08.064Z,26.70
2023-05-25T22:50:15.098Z,17.08
2023-05-25T22:52:20.181Z,20.25
2023-05-25T22:54:25.634Z,16.08
2023-05-25T22:56:30.682Z,18.70
2023-05-25T22:58:35.723Z,21.40
2023-05-25T23:00:40.827Z,21.63
2023-05-25T23:02:45.982Z,17.45
2023-05-25T23:04:53.963Z,14.63
2023-05-25T23:06:59.004Z,18.42
2023-05-25T23:09:04.042Z,20.55
2023-05-25T23:11:09.175Z,18.63
2023-05-25T23:13:14.991Z,19.45
2023-05-25T23:15:21.391Z,21.23
2023-05-25T23:17:26.503Z,20.33
2023-05-25T23:19:31.551Z,17.80
2023-05-25T23:21:39.541Z,26.17
2023-05-25T23:23:44.671Z,21.27
2023-05-25T23:25:50.265Z,19.92
2023-05-25T23:27:55.389Z,23.30
2023-05-25T23:30:02.292Z,18.55
2023-05-25T23:32:08.471Z,21.33
2023-05-25T23:34:14.155Z,18.88
2023-05-25T23:36:19.505Z,22.33
2023-05-25T23:38:27.224Z,22.50
2023-05-25T23:40:32.564Z,24.10
2023-05-25T23:42:42.162Z,24.00
2023-05-25T23:44:47.479Z,16.98
2023-05-25T23:46:52.794Z,18.75
2023-05-25T23:48:57.872Z,21.63
2023-05-25T23:51:03.213Z,19.90
2023-05-25T23:53:08.278Z,20.30
2023-05-25T23:55:16.443Z,19.73
2023-05-25T23:57:21.864Z,22.85
2023-05-25T23:59:27.170Z,19.02
